sensor_id;sensor_type;location;lat;lon;timestamp;P1;durP1;ratioP1;P2;durP2;ratioP2
26536;SDS011;14204;51.262;5.488;2022-07-29T00:01:46;7.28;;;2.08;;
26536;SDS011;14204;51.262;5.488;2022-07-29T00:04:12;5.40;;;1.85;;
26536;SDS011;14204;51.262;5.488;2022-07-29T00:06:38;8.07;;;2.50;;
26536;SDS011;14204;51.262;5.488;2022-07-29T00:09:04;1.80;;;1.70;;
26536;SDS011;14204;51.262;5.488;2022-07-29T00:11:30;4.15;;;1.88;;
26536;SDS011;14204;51.262;5.488;2022-07-29T00:13:55;5.40;;;2.22;;
26536;SDS011;14204;51.262;5.488;2022-07-29T00:16:21;6.68;;;2.60;;
26536;SDS011;14204;51.262;5.488;2022-07-29T00:18:48;10.65;;;2.92;;
26536;SDS011;14204;51.262;5.488;2022-07-29T00:21:13;14.07;;;3.42;;
26536;SDS011;14204;51.262;5.488;2022-07-29T00:23:39;15.43;;;3.63;;
26536;SDS011;14204;51.262;5.488;2022-07-29T00:26:05;7.22;;;3.15;;
26536;SDS011;14204;51.262;5.488;2022-07-29T00:28:31;11.48;;;3.30;;
26536;SDS011;14204;51.262;5.488;2022-07-29T00:30:56;6.13;;;3.38;;
26536;SDS011;14204;51.262;5.488;2022-07-29T00:33:22;10.43;;;3.17;;
26536;SDS011;14204;51.262;5.488;2022-07-29T00:35:48;6.28;;;3.28;;
26536;SDS011;14204;51.262;5.488;2022-07-29T00:38:15;8.13;;;3.65;;
26536;SDS011;14204;51.262;5.488;2022-07-29T00:40:46;10.38;;;3.47;;
26536;SDS011;14204;51.262;5.488;2022-07-29T00:43:12;10.63;;;3.70;;
26536;SDS011;14204;51.262;5.488;2022-07-29T00:45:39;7.07;;;3.03;;
26536;SDS011;14204;51.262;5.488;2022-07-29T00:48:05;12.70;;;4.05;;
26536;SDS011;14204;51.262;5.488;2022-07-29T00:50:31;7.47;;;2.97;;
26536;SDS011;14204;51.262;5.488;2022-07-29T00:52:58;6.28;;;3.75;;
26536;SDS011;14204;51.262;5.488;2022-07-29T00:55:24;6.22;;;3.55;;
26536;SDS011;14204;51.262;5.488;2022-07-29T00:57:49;8.10;;;3.28;;
26536;SDS011;14204;51.262;5.488;2022-07-29T01:00:17;5.65;;;2.95;;
26536;SDS011;14204;51.262;5.488;2022-07-29T01:02:45;6.80;;;3.10;;
26536;SDS011;14204;51.262;5.488;2022-07-29T01:05:18;13.40;;;3.63;;
26536;SDS011;14204;51.262;5.488;2022-07-29T01:07:46;7.25;;;3.08;;
26536;SDS011;14204;51.262;5.488;2022-07-29T01:10:14;6.22;;;3.35;;
26536;SDS011;14204;51.262;5.488;2022-07-29T01:12:41;6.70;;;3.40;;
26536;SDS011;14204;51.262;5.488;2022-07-29T01:15:09;5.82;;;2.97;;
26536;SDS011;14204;51.262;5.488;2022-07-29T01:27:12;6.28;;;3.55;;
26536;SDS011;14204;51.262;5.488;2022-07-29T01:29:49;4.57;;;3.35;;
26536;SDS011;14204;51.262;5.488;2022-07-29T01:32:31;7.18;;;3.45;;
26536;SDS011;14204;51.262;5.488;2022-07-29T01:37:45;6.65;;;4.18;;
26536;SDS011;14204;51.262;5.488;2022-07-29T01:40:27;6.32;;;4.07;;
26536;SDS011;14204;51.262;5.488;2022-07-29T01:43:00;7.30;;;4.63;;
26536;SDS011;14204;51.262;5.488;2022-07-29T01:45:37;5.40;;;3.30;;
26536;SDS011;14204;51.262;5.488;2022-07-29T01:48:16;5.85;;;3.88;;
26536;SDS011;14204;51.262;5.488;2022-07-29T01:50:56;7.35;;;3.40;;
26536;SDS011;14204;51.262;5.488;2022-07-29T01:53:54;6.05;;;3.47;;
26536;SDS011;14204;51.262;5.488;2022-07-29T01:56:39;5.65;;;3.30;;
26536;SDS011;14204;51.262;5.488;2022-07-29T01:59:07;6.28;;;4.20;;
26536;SDS011;14204;51.262;5.488;2022-07-29T02:01:34;7.03;;;4.82;;
26536;SDS011;14204;51.262;5.488;2022-07-29T02:04:03;5.95;;;4.13;;
26536;SDS011;14204;51.262;5.488;2022-07-29T02:06:30;9.07;;;4.40;;
26536;SDS011;14204;51.262;5.488;2022-07-29T02:08:58;10.15;;;4.80;;
26536;SDS011;14204;51.262;5.488;2022-07-29T02:11:24;6.70;;;4.53;;
26536;SDS011;14204;51.262;5.488;2022-07-29T02:13:51;6.78;;;4.03;;
26536;SDS011;14204;51.262;5.488;2022-07-29T02:16:20;7.00;;;4.47;;
26536;SDS011;14204;51.262;5.488;2022-07-29T02:18:47;8.60;;;4.25;;
26536;SDS011;14204;51.262;5.488;2022-07-29T02:21:19;7.47;;;4.65;;
26536;SDS011;14204;51.262;5.488;2022-07-29T02:23:49;8.60;;;4.67;;
26536;SDS011;14204;51.262;5.488;2022-07-29T02:26:18;5.35;;;4.00;;
26536;SDS011;14204;51.262;5.488;2022-07-29T02:28:45;7.70;;;4.57;;
26536;SDS011;14204;51.262;5.488;2022-07-29T02:31:13;5.05;;;4.18;;
26536;SDS011;14204;51.262;5.488;2022-07-29T02:33:40;7.00;;;4.40;;
26536;SDS011;14204;51.262;5.488;2022-07-29T02:36:06;4.63;;;4.03;;
26536;SDS011;14204;51.262;5.488;2022-07-29T02:38:32;5.90;;;4.60;;
26536;SDS011;14204;51.262;5.488;2022-07-29T02:41:43;10.25;;;3.92;;
26536;SDS011;14204;51.262;5.488;2022-07-29T02:44:16;7.38;;;4.30;;
26536;SDS011;14204;51.262;5.488;2022-07-29T02:46:55;9.93;;;4.88;;
26536;SDS011;14204;51.262;5.488;2022-07-29T02:49:38;6.95;;;4.95;;
26536;SDS011;14204;51.262;5.488;2022-07-29T02:52:58;9.82;;;5.55;;
26536;SDS011;14204;51.262;5.488;2022-07-29T02:55:11;8.38;;;5.50;;
26536;SDS011;14204;51.262;5.488;2022-07-29T02:58:05;6.30;;;4.78;;
26536;SDS011;14204;51.262;5.488;2022-07-29T03:00:53;7.90;;;5.05;;
26536;SDS011;14204;51.262;5.488;2022-07-29T03:03:22;7.22;;;4.80;;
26536;SDS011;14204;51.262;5.488;2022-07-29T03:05:54;8.25;;;4.57;;
26536;SDS011;14204;51.262;5.488;2022-07-29T03:08:21;6.88;;;5.50;;
26536;SDS011;14204;51.262;5.488;2022-07-29T03:10:48;6.90;;;5.43;;
26536;SDS011;14204;51.262;5.488;2022-07-29T03:13:15;8.82;;;5.18;;
26536;SDS011;14204;51.262;5.488;2022-07-29T03:15:44;8.70;;;4.78;;
26536;SDS011;14204;51.262;5.488;2022-07-29T03:18:10;9.07;;;5.20;;
26536;SDS011;14204;51.262;5.488;2022-07-29T03:20:37;5.93;;;5.43;;
26536;SDS011;14204;51.262;5.488;2022-07-29T03:23:04;7.00;;;5.13;;
26536;SDS011;14204;51.262;5.488;2022-07-29T03:25:30;7.80;;;4.90;;
26536;SDS011;14204;51.262;5.488;2022-07-29T03:27:56;9.55;;;5.05;;
26536;SDS011;14204;51.262;5.488;2022-07-29T03:30:21;6.25;;;5.57;;
26536;SDS011;14204;51.262;5.488;2022-07-29T03:32:48;5.78;;;4.78;;
26536;SDS011;14204;51.262;5.488;2022-07-29T03:35:15;6.93;;;5.15;;
26536;SDS011;14204;51.262;5.488;2022-07-29T03:37:44;6.82;;;4.90;;
26536;SDS011;14204;51.262;5.488;2022-07-29T03:40:10;9.70;;;5.32;;
26536;SDS011;14204;51.262;5.488;2022-07-29T03:42:39;9.48;;;6.03;;
26536;SDS011;14204;51.262;5.488;2022-07-29T03:45:10;10.25;;;5.35;;
26536;SDS011;14204;51.262;5.488;2022-07-29T03:47:40;7.30;;;5.32;;
26536;SDS011;14204;51.262;5.488;2022-07-29T03:50:11;9.13;;;5.77;;
26536;SDS011;14204;51.262;5.488;2022-07-29T03:52:39;6.78;;;5.05;;
26536;SDS011;14204;51.262;5.488;2022-07-29T03:55:05;8.05;;;6.00;;
26536;SDS011;14204;51.262;5.488;2022-07-29T03:57:32;7.57;;;5.22;;
26536;SDS011;14204;51.262;5.488;2022-07-29T04:00:00;8.30;;;5.57;;
26536;SDS011;14204;51.262;5.488;2022-07-29T04:02:28;10.10;;;6.68;;
26536;SDS011;14204;51.262;5.488;2022-07-29T04:04:54;10.93;;;5.95;;
26536;SDS011;14204;51.262;5.488;2022-07-29T04:07:20;7.15;;;6.43;;
26536;SDS011;14204;51.262;5.488;2022-07-29T04:09:45;7.05;;;6.00;;
26536;SDS011;14204;51.262;5.488;2022-07-29T04:12:11;7.57;;;5.75;;
26536;SDS011;14204;51.262;5.488;2022-07-29T04:14:37;7.78;;;5.60;;
26536;SDS011;14204;51.262;5.488;2022-07-29T04:17:03;7.57;;;5.88;;
26536;SDS011;14204;51.262;5.488;2022-07-29T04:19:29;9.82;;;5.90;;
26536;SDS011;14204;51.262;5.488;2022-07-29T04:21:55;7.88;;;5.80;;
26536;SDS011;14204;51.262;5.488;2022-07-29T04:24:21;10.15;;;6.22;;
26536;SDS011;14204;51.262;5.488;2022-07-29T04:26:47;8.68;;;6.85;;
26536;SDS011;14204;51.262;5.488;2022-07-29T04:29:13;8.18;;;5.90;;
26536;SDS011;14204;51.262;5.488;2022-07-29T04:31:39;7.85;;;5.50;;
26536;SDS011;14204;51.262;5.488;2022-07-29T04:34:06;9.10;;;6.22;;
26536;SDS011;14204;51.262;5.488;2022-07-29T04:36:32;6.28;;;5.25;;
26536;SDS011;14204;51.262;5.488;2022-07-29T04:38:57;7.45;;;5.93;;
26536;SDS011;14204;51.262;5.488;2022-07-29T04:41:23;8.63;;;5.90;;
26536;SDS011;14204;51.262;5.488;2022-07-29T04:43:49;6.20;;;5.60;;
26536;SDS011;14204;51.262;5.488;2022-07-29T04:46:14;7.00;;;5.68;;
26536;SDS011;14204;51.262;5.488;2022-07-29T04:48:40;7.85;;;5.50;;
26536;SDS011;14204;51.262;5.488;2022-07-29T04:51:06;8.30;;;5.78;;
26536;SDS011;14204;51.262;5.488;2022-07-29T04:53:31;7.05;;;6.07;;
26536;SDS011;14204;51.262;5.488;2022-07-29T04:55:57;7.22;;;5.55;;
26536;SDS011;14204;51.262;5.488;2022-07-29T04:58:23;6.65;;;5.95;;
26536;SDS011;14204;51.262;5.488;2022-07-29T05:00:49;6.68;;;6.00;;
26536;SDS011;14204;51.262;5.488;2022-07-29T05:03:15;10.10;;;6.50;;
26536;SDS011;14204;51.262;5.488;2022-07-29T05:05:41;7.70;;;5.93;;
26536;SDS011;14204;51.262;5.488;2022-07-29T05:08:07;7.15;;;6.25;;
26536;SDS011;14204;51.262;5.488;2022-07-29T05:10:33;10.40;;;6.18;;
26536;SDS011;14204;51.262;5.488;2022-07-29T05:13:03;9.10;;;6.55;;
26536;SDS011;14204;51.262;5.488;2022-07-29T05:15:32;6.70;;;5.85;;
26536;SDS011;14204;51.262;5.488;2022-07-29T05:17:59;7.43;;;6.68;;
26536;SDS011;14204;51.262;5.488;2022-07-29T05:20:25;7.15;;;6.43;;
26536;SDS011;14204;51.262;5.488;2022-07-29T05:22:53;7.78;;;6.00;;
26536;SDS011;14204;51.262;5.488;2022-07-29T05:25:20;6.63;;;6.00;;
26536;SDS011;14204;51.262;5.488;2022-07-29T05:27:45;9.25;;;6.28;;
26536;SDS011;14204;51.262;5.488;2022-07-29T05:30:11;10.07;;;6.07;;
26536;SDS011;14204;51.262;5.488;2022-07-29T05:32:37;6.97;;;6.38;;
26536;SDS011;14204;51.262;5.488;2022-07-29T05:35:02;10.15;;;6.60;;
26536;SDS011;14204;51.262;5.488;2022-07-29T05:37:28;7.60;;;5.88;;
26536;SDS011;14204;51.262;5.488;2022-07-29T05:39:54;10.73;;;7.15;;
26536;SDS011;14204;51.262;5.488;2022-07-29T05:42:19;7.55;;;6.13;;
26536;SDS011;14204;51.262;5.488;2022-07-29T05:44:45;7.53;;;5.95;;
26536;SDS011;14204;51.262;5.488;2022-07-29T05:47:12;9.93;;;6.22;;
26536;SDS011;14204;51.262;5.488;2022-07-29T05:49:38;7.95;;;6.80;;
26536;SDS011;14204;51.262;5.488;2022-07-29T05:52:03;7.63;;;6.78;;
26536;SDS011;14204;51.262;5.488;2022-07-29T05:54:29;8.65;;;6.65;;
26536;SDS011;14204;51.262;5.488;2022-07-29T05:56:55;10.43;;;7.30;;
26536;SDS011;14204;51.262;5.488;2022-07-29T05:59:21;9.55;;;6.97;;
26536;SDS011;14204;51.262;5.488;2022-07-29T06:01:47;10.50;;;6.78;;
26536;SDS011;14204;51.262;5.488;2022-07-29T06:04:12;8.25;;;7.03;;
26536;SDS011;14204;51.262;5.488;2022-07-29T06:06:38;9.27;;;6.88;;
26536;SDS011;14204;51.262;5.488;2022-07-29T06:09:04;10.80;;;7.63;;
26536;SDS011;14204;51.262;5.488;2022-07-29T06:11:29;7.80;;;7.10;;
26536;SDS011;14204;51.262;5.488;2022-07-29T06:13:55;10.20;;;7.75;;
26536;SDS011;14204;51.262;5.488;2022-07-29T06:16:20;9.57;;;7.50;;
26536;SDS011;14204;51.262;5.488;2022-07-29T06:18:46;8.85;;;8.02;;
26536;SDS011;14204;51.262;5.488;2022-07-29T06:21:12;12.00;;;8.70;;
26536;SDS011;14204;51.262;5.488;2022-07-29T06:23:38;13.07;;;8.27;;
26536;SDS011;14204;51.262;5.488;2022-07-29T06:26:04;11.20;;;7.95;;
26536;SDS011;14204;51.262;5.488;2022-07-29T06:28:30;11.10;;;8.18;;
26536;SDS011;14204;51.262;5.488;2022-07-29T06:30:56;9.05;;;7.93;;
26536;SDS011;14204;51.262;5.488;2022-07-29T06:33:21;10.32;;;8.88;;
26536;SDS011;14204;51.262;5.488;2022-07-29T06:35:47;9.15;;;8.10;;
26536;SDS011;14204;51.262;5.488;2022-07-29T06:38:13;11.98;;;8.20;;
26536;SDS011;14204;51.262;5.488;2022-07-29T06:40:43;14.82;;;10.55;;
26536;SDS011;14204;51.262;5.488;2022-07-29T06:43:35;13.38;;;8.77;;
26536;SDS011;14204;51.262;5.488;2022-07-29T06:46:10;13.13;;;8.88;;
26536;SDS011;14204;51.262;5.488;2022-07-29T06:48:40;11.30;;;8.80;;
26536;SDS011;14204;51.262;5.488;2022-07-29T06:51:07;11.77;;;9.55;;
26536;SDS011;14204;51.262;5.488;2022-07-29T06:53:34;10.63;;;8.82;;
26536;SDS011;14204;51.262;5.488;2022-07-29T06:56:00;12.77;;;8.65;;
26536;SDS011;14204;51.262;5.488;2022-07-29T06:58:27;10.95;;;9.40;;
26536;SDS011;14204;51.262;5.488;2022-07-29T07:00:54;16.15;;;10.38;;
26536;SDS011;14204;51.262;5.488;2022-07-29T07:03:21;11.20;;;9.00;;
26536;SDS011;14204;51.262;5.488;2022-07-29T07:05:47;9.95;;;8.20;;
26536;SDS011;14204;51.262;5.488;2022-07-29T07:08:13;11.43;;;8.15;;
26536;SDS011;14204;51.262;5.488;2022-07-29T07:10:38;13.73;;;8.82;;
26536;SDS011;14204;51.262;5.488;2022-07-29T07:13:05;12.30;;;10.70;;
26536;SDS011;14204;51.262;5.488;2022-07-29T07:15:30;10.52;;;9.38;;
26536;SDS011;14204;51.262;5.488;2022-07-29T07:17:56;11.13;;;9.38;;
26536;SDS011;14204;51.262;5.488;2022-07-29T07:20:25;13.32;;;8.75;;
26536;SDS011;14204;51.262;5.488;2022-07-29T07:22:50;11.98;;;8.80;;
26536;SDS011;14204;51.262;5.488;2022-07-29T07:25:16;10.93;;;7.82;;
26536;SDS011;14204;51.262;5.488;2022-07-29T07:27:42;12.93;;;7.35;;
26536;SDS011;14204;51.262;5.488;2022-07-29T07:30:09;8.45;;;7.65;;
26536;SDS011;14204;51.262;5.488;2022-07-29T07:32:35;10.35;;;9.00;;
26536;SDS011;14204;51.262;5.488;2022-07-29T07:35:00;12.73;;;8.20;;
26536;SDS011;14204;51.262;5.488;2022-07-29T07:37:27;10.60;;;8.63;;
26536;SDS011;14204;51.262;5.488;2022-07-29T07:39:52;11.85;;;8.75;;
26536;SDS011;14204;51.262;5.488;2022-07-29T07:42:19;14.68;;;8.88;;
26536;SDS011;14204;51.262;5.488;2022-07-29T07:44:44;9.70;;;8.30;;
26536;SDS011;14204;51.262;5.488;2022-07-29T07:47:11;9.75;;;8.65;;
26536;SDS011;14204;51.262;5.488;2022-07-29T07:49:37;9.05;;;8.18;;
26536;SDS011;14204;51.262;5.488;2022-07-29T07:52:02;12.50;;;9.02;;
26536;SDS011;14204;51.262;5.488;2022-07-29T07:54:29;11.15;;;9.00;;
26536;SDS011;14204;51.262;5.488;2022-07-29T07:56:55;12.00;;;8.88;;
26536;SDS011;14204;51.262;5.488;2022-07-29T07:59:21;11.50;;;9.02;;
26536;SDS011;14204;51.262;5.488;2022-07-29T08:01:47;9.07;;;8.18;;
26536;SDS011;14204;51.262;5.488;2022-07-29T08:04:12;9.85;;;8.25;;
26536;SDS011;14204;51.262;5.488;2022-07-29T08:06:38;8.90;;;7.82;;
26536;SDS011;14204;51.262;5.488;2022-07-29T08:09:04;10.45;;;9.35;;
26536;SDS011;14204;51.262;5.488;2022-07-29T08:11:30;9.20;;;7.72;;
26536;SDS011;14204;51.262;5.488;2022-07-29T08:13:56;10.13;;;8.32;;
26536;SDS011;14204;51.262;5.488;2022-07-29T08:16:22;10.70;;;8.30;;
26536;SDS011;14204;51.262;5.488;2022-07-29T08:18:50;10.18;;;8.32;;
26536;SDS011;14204;51.262;5.488;2022-07-29T08:21:16;11.98;;;8.63;;
26536;SDS011;14204;51.262;5.488;2022-07-29T08:23:45;13.05;;;9.00;;
26536;SDS011;14204;51.262;5.488;2022-07-29T08:26:14;12.88;;;9.13;;
26536;SDS011;14204;51.262;5.488;2022-07-29T08:28:41;10.95;;;8.48;;
26536;SDS011;14204;51.262;5.488;2022-07-29T08:31:11;8.93;;;8.02;;
26536;SDS011;14204;51.262;5.488;2022-07-29T08:33:38;10.50;;;8.73;;
26536;SDS011;14204;51.262;5.488;2022-07-29T08:36:04;9.68;;;7.68;;
26536;SDS011;14204;51.262;5.488;2022-07-29T08:38:31;11.32;;;9.30;;
26536;SDS011;14204;51.262;5.488;2022-07-29T08:40:57;9.57;;;8.57;;
26536;SDS011;14204;51.262;5.488;2022-07-29T08:43:25;8.20;;;7.28;;
26536;SDS011;14204;51.262;5.488;2022-07-29T08:45:51;12.00;;;7.72;;
26536;SDS011;14204;51.262;5.488;2022-07-29T08:48:18;8.80;;;7.22;;
26536;SDS011;14204;51.262;5.488;2022-07-29T08:50:45;8.65;;;7.03;;
26536;SDS011;14204;51.262;5.488;2022-07-29T08:53:13;9.73;;;8.32;;
26536;SDS011;14204;51.262;5.488;2022-07-29T08:55:41;7.53;;;6.78;;
26536;SDS011;14204;51.262;5.488;2022-07-29T08:58:08;9.98;;;7.57;;
26536;SDS011;14204;51.262;5.488;2022-07-29T09:00:36;9.52;;;8.48;;
26536;SDS011;14204;51.262;5.488;2022-07-29T09:03:05;7.70;;;7.00;;
26536;SDS011;14204;51.262;5.488;2022-07-29T09:05:31;11.70;;;7.35;;
26536;SDS011;14204;51.262;5.488;2022-07-29T09:07:58;7.80;;;7.10;;
26536;SDS011;14204;51.262;5.488;2022-07-29T09:10:25;7.10;;;6.50;;
26536;SDS011;14204;51.262;5.488;2022-07-29T09:12:51;7.65;;;6.70;;
26536;SDS011;14204;51.262;5.488;2022-07-29T09:15:17;7.75;;;6.32;;
26536;SDS011;14204;51.262;5.488;2022-07-29T09:20:18;7.53;;;5.95;;
26536;SDS011;14204;51.262;5.488;2022-07-29T09:22:48;8.48;;;6.22;;
26536;SDS011;14204;51.262;5.488;2022-07-29T09:25:14;8.75;;;6.47;;
26536;SDS011;14204;51.262;5.488;2022-07-29T09:28:11;9.88;;;5.72;;
26536;SDS011;14204;51.262;5.488;2022-07-29T09:30:54;12.10;;;5.85;;
26536;SDS011;14204;51.262;5.488;2022-07-29T09:33:24;7.97;;;5.70;;
26536;SDS011;14204;51.262;5.488;2022-07-29T09:36:06;9.02;;;5.53;;
26536;SDS011;14204;51.262;5.488;2022-07-29T09:38:33;5.82;;;4.90;;
26536;SDS011;14204;51.262;5.488;2022-07-29T09:41:00;9.52;;;4.20;;
26536;SDS011;14204;51.262;5.488;2022-07-29T09:43:27;10.43;;;6.40;;
26536;SDS011;14204;51.262;5.488;2022-07-29T09:45:53;7.53;;;5.30;;
26536;SDS011;14204;51.262;5.488;2022-07-29T09:48:20;7.88;;;4.90;;
26536;SDS011;14204;51.262;5.488;2022-07-29T09:50:48;6.65;;;5.13;;
26536;SDS011;14204;51.262;5.488;2022-07-29T09:53:33;10.90;;;5.15;;
26536;SDS011;14204;51.262;5.488;2022-07-29T09:55:59;7.75;;;4.32;;
26536;SDS011;14204;51.262;5.488;2022-07-29T09:58:25;9.43;;;5.30;;
26536;SDS011;14204;51.262;5.488;2022-07-29T10:00:52;4.40;;;3.60;;
26536;SDS011;14204;51.262;5.488;2022-07-29T10:03:20;6.68;;;4.00;;
26536;SDS011;14204;51.262;5.488;2022-07-29T10:05:47;5.07;;;4.40;;
26536;SDS011;14204;51.262;5.488;2022-07-29T10:08:31;9.23;;;5.20;;
26536;SDS011;14204;51.262;5.488;2022-07-29T10:11:12;4.88;;;3.95;;
26536;SDS011;14204;51.262;5.488;2022-07-29T10:13:40;8.57;;;3.38;;
26536;SDS011;14204;51.262;5.488;2022-07-29T10:16:07;2.88;;;2.67;;
26536;SDS011;14204;51.262;5.488;2022-07-29T10:18:33;4.97;;;2.72;;
26536;SDS011;14204;51.262;5.488;2022-07-29T10:20:59;4.07;;;2.78;;
26536;SDS011;14204;51.262;5.488;2022-07-29T10:23:26;6.57;;;2.78;;
26536;SDS011;14204;51.262;5.488;2022-07-29T10:25:53;5.38;;;2.70;;
26536;SDS011;14204;51.262;5.488;2022-07-29T10:28:19;6.18;;;2.90;;
26536;SDS011;14204;51.262;5.488;2022-07-29T10:30:45;4.35;;;2.30;;
26536;SDS011;14204;51.262;5.488;2022-07-29T10:33:26;3.90;;;2.42;;
26536;SDS011;14204;51.262;5.488;2022-07-29T10:36:15;3.83;;;2.50;;
26536;SDS011;14204;51.262;5.488;2022-07-29T10:44:31;4.38;;;2.30;;
26536;SDS011;14204;51.262;5.488;2022-07-29T10:46:58;8.10;;;2.45;;
26536;SDS011;14204;51.262;5.488;2022-07-29T10:49:24;5.35;;;2.45;;
26536;SDS011;14204;51.262;5.488;2022-07-29T10:52:05;3.63;;;2.50;;
26536;SDS011;14204;51.262;5.488;2022-07-29T11:07:29;5.05;;;2.88;;
26536;SDS011;14204;51.262;5.488;2022-07-29T11:10:37;5.70;;;2.95;;
26536;SDS011;14204;51.262;5.488;2022-07-29T11:15:29;4.57;;;2.53;;
26536;SDS011;14204;51.262;5.488;2022-07-29T11:18:18;5.78;;;2.00;;
26536;SDS011;14204;51.262;5.488;2022-07-29T11:20:44;3.65;;;2.35;;
26536;SDS011;14204;51.262;5.488;2022-07-29T11:23:22;3.15;;;2.40;;
26536;SDS011;14204;51.262;5.488;2022-07-29T11:31:31;3.90;;;2.60;;
26536;SDS011;14204;51.262;5.488;2022-07-29T11:34:20;5.10;;;2.20;;
26536;SDS011;14204;51.262;5.488;2022-07-29T11:39:38;3.83;;;1.70;;
26536;SDS011;14204;51.262;5.488;2022-07-29T11:47:21;4.18;;;2.03;;
26536;SDS011;14204;51.262;5.488;2022-07-29T11:49:47;5.10;;;2.15;;
26536;SDS011;14204;51.262;5.488;2022-07-29T11:52:16;4.38;;;2.55;;
26536;SDS011;14204;51.262;5.488;2022-07-29T11:54:43;4.68;;;2.03;;
26536;SDS011;14204;51.262;5.488;2022-07-29T11:57:09;6.68;;;2.33;;
26536;SDS011;14204;51.262;5.488;2022-07-29T11:59:39;6.97;;;3.03;;
26536;SDS011;14204;51.262;5.488;2022-07-29T12:02:06;3.28;;;2.80;;
26536;SDS011;14204;51.262;5.488;2022-07-29T12:04:33;7.45;;;2.63;;
26536;SDS011;14204;51.262;5.488;2022-07-29T12:07:12;4.53;;;2.65;;
26536;SDS011;14204;51.262;5.488;2022-07-29T12:09:38;5.72;;;2.80;;
26536;SDS011;14204;51.262;5.488;2022-07-29T12:12:04;3.97;;;2.40;;
26536;SDS011;14204;51.262;5.488;2022-07-29T12:14:31;4.03;;;2.50;;
26536;SDS011;14204;51.262;5.488;2022-07-29T12:16:58;2.67;;;2.47;;
26536;SDS011;14204;51.262;5.488;2022-07-29T12:19:25;4.93;;;2.55;;
26536;SDS011;14204;51.262;5.488;2022-07-29T12:21:53;4.65;;;2.17;;
26536;SDS011;14204;51.262;5.488;2022-07-29T12:24:20;2.88;;;2.58;;
26536;SDS011;14204;51.262;5.488;2022-07-29T12:26:56;6.95;;;2.83;;
26536;SDS011;14204;51.262;5.488;2022-07-29T12:29:23;5.88;;;2.08;;
26536;SDS011;14204;51.262;5.488;2022-07-29T12:31:52;4.05;;;2.90;;
26536;SDS011;14204;51.262;5.488;2022-07-29T12:34:19;5.05;;;2.30;;
26536;SDS011;14204;51.262;5.488;2022-07-29T12:36:48;3.60;;;2.00;;
26536;SDS011;14204;51.262;5.488;2022-07-29T12:39:17;4.60;;;2.40;;
26536;SDS011;14204;51.262;5.488;2022-07-29T12:41:43;4.70;;;2.80;;
26536;SDS011;14204;51.262;5.488;2022-07-29T12:44:10;2.63;;;2.33;;
26536;SDS011;14204;51.262;5.488;2022-07-29T12:46:36;5.80;;;2.60;;
26536;SDS011;14204;51.262;5.488;2022-07-29T12:49:02;4.28;;;2.28;;
26536;SDS011;14204;51.262;5.488;2022-07-29T12:51:33;4.07;;;2.38;;
26536;SDS011;14204;51.262;5.488;2022-07-29T12:54:19;5.10;;;2.08;;
26536;SDS011;14204;51.262;5.488;2022-07-29T12:56:44;3.25;;;1.80;;
26536;SDS011;14204;51.262;5.488;2022-07-29T12:59:11;2.63;;;1.92;;
26536;SDS011;14204;51.262;5.488;2022-07-29T13:01:38;2.95;;;1.90;;
26536;SDS011;14204;51.262;5.488;2022-07-29T13:04:04;4.10;;;1.70;;
26536;SDS011;14204;51.262;5.488;2022-07-29T13:09:14;6.45;;;2.08;;
26536;SDS011;14204;51.262;5.488;2022-07-29T13:14:57;1.80;;;1.70;;
26536;SDS011;14204;51.262;5.488;2022-07-29T13:17:06;3.42;;;1.88;;
26536;SDS011;14204;51.262;5.488;2022-07-29T13:19:42;2.97;;;2.15;;
26536;SDS011;14204;51.262;5.488;2022-07-29T13:22:09;2.20;;;1.83;;
26536;SDS011;14204;51.262;5.488;2022-07-29T13:24:46;3.08;;;2.20;;
26536;SDS011;14204;51.262;5.488;2022-07-29T13:27:15;4.18;;;2.20;;
26536;SDS011;14204;51.262;5.488;2022-07-29T13:29:42;3.35;;;1.63;;
26536;SDS011;14204;51.262;5.488;2022-07-29T13:32:08;3.75;;;2.20;;
26536;SDS011;14204;51.262;5.488;2022-07-29T13:34:34;3.00;;;2.13;;
26536;SDS011;14204;51.262;5.488;2022-07-29T13:36:59;5.10;;;2.17;;
26536;SDS011;14204;51.262;5.488;2022-07-29T13:39:25;4.30;;;1.80;;
26536;SDS011;14204;51.262;5.488;2022-07-29T13:41:51;2.72;;;1.58;;
26536;SDS011;14204;51.262;5.488;2022-07-29T13:44:16;4.65;;;1.83;;
26536;SDS011;14204;51.262;5.488;2022-07-29T13:46:42;3.22;;;1.92;;
26536;SDS011;14204;51.262;5.488;2022-07-29T13:49:07;4.40;;;2.10;;
26536;SDS011;14204;51.262;5.488;2022-07-29T13:51:33;5.47;;;1.77;;
26536;SDS011;14204;51.262;5.488;2022-07-29T13:53:59;5.10;;;1.80;;
26536;SDS011;14204;51.262;5.488;2022-07-29T13:56:24;3.20;;;2.10;;
26536;SDS011;14204;51.262;5.488;2022-07-29T13:58:51;3.83;;;1.98;;
26536;SDS011;14204;51.262;5.488;2022-07-29T14:01:16;5.25;;;2.10;;
26536;SDS011;14204;51.262;5.488;2022-07-29T14:03:42;4.90;;;2.15;;
26536;SDS011;14204;51.262;5.488;2022-07-29T14:06:08;3.28;;;2.10;;
26536;SDS011;14204;51.262;5.488;2022-07-29T14:08:34;4.97;;;2.67;;
26536;SDS011;14204;51.262;5.488;2022-07-29T14:11:00;5.75;;;2.05;;
26536;SDS011;14204;51.262;5.488;2022-07-29T14:13:25;3.67;;;2.17;;
26536;SDS011;14204;51.262;5.488;2022-07-29T14:15:51;4.18;;;2.45;;
26536;SDS011;14204;51.262;5.488;2022-07-29T14:18:17;4.18;;;1.92;;
26536;SDS011;14204;51.262;5.488;2022-07-29T14:20:43;3.78;;;2.00;;
26536;SDS011;14204;51.262;5.488;2022-07-29T14:23:08;6.82;;;2.55;;
26536;SDS011;14204;51.262;5.488;2022-07-29T14:25:34;5.78;;;1.90;;
26536;SDS011;14204;51.262;5.488;2022-07-29T14:28:00;2.28;;;2.00;;
26536;SDS011;14204;51.262;5.488;2022-07-29T14:30:25;2.60;;;2.10;;
26536;SDS011;14204;51.262;5.488;2022-07-29T14:32:51;3.83;;;2.47;;
26536;SDS011;14204;51.262;5.488;2022-07-29T14:35:17;3.55;;;1.90;;
26536;SDS011;14204;51.262;5.488;2022-07-29T14:37:42;5.10;;;1.92;;
26536;SDS011;14204;51.262;5.488;2022-07-29T14:40:08;7.15;;;2.00;;
26536;SDS011;14204;51.262;5.488;2022-07-29T14:42:35;2.80;;;1.70;;
26536;SDS011;14204;51.262;5.488;2022-07-29T14:45:02;3.03;;;1.90;;
26536;SDS011;14204;51.262;5.488;2022-07-29T14:47:28;4.82;;;1.73;;
26536;SDS011;14204;51.262;5.488;2022-07-29T14:49:54;4.38;;;2.20;;
26536;SDS011;14204;51.262;5.488;2022-07-29T14:52:20;4.35;;;1.83;;
26536;SDS011;14204;51.262;5.488;2022-07-29T14:54:45;4.53;;;1.80;;
26536;SDS011;14204;51.262;5.488;2022-07-29T14:57:11;4.30;;;1.95;;
26536;SDS011;14204;51.262;5.488;2022-07-29T14:59:37;4.13;;;2.40;;
26536;SDS011;14204;51.262;5.488;2022-07-29T15:02:02;4.00;;;1.98;;
26536;SDS011;14204;51.262;5.488;2022-07-29T15:04:28;3.13;;;1.85;;
26536;SDS011;14204;51.262;5.488;2022-07-29T15:06:53;2.70;;;1.88;;
26536;SDS011;14204;51.262;5.488;2022-07-29T15:09:19;5.30;;;2.10;;
26536;SDS011;14204;51.262;5.488;2022-07-29T15:11:45;2.47;;;1.70;;
26536;SDS011;14204;51.262;5.488;2022-07-29T15:14:10;4.05;;;2.05;;
26536;SDS011;14204;51.262;5.488;2022-07-29T15:16:36;6.55;;;2.00;;
26536;SDS011;14204;51.262;5.488;2022-07-29T15:19:03;5.00;;;1.65;;
26536;SDS011;14204;51.262;5.488;2022-07-29T15:21:29;3.72;;;2.00;;
26536;SDS011;14204;51.262;5.488;2022-07-29T15:23:55;8.25;;;2.33;;
26536;SDS011;14204;51.262;5.488;2022-07-29T15:26:20;5.15;;;2.10;;
26536;SDS011;14204;51.262;5.488;2022-07-29T15:28:46;4.05;;;1.90;;
26536;SDS011;14204;51.262;5.488;2022-07-29T15:31:12;2.63;;;1.90;;
26536;SDS011;14204;51.262;5.488;2022-07-29T15:33:37;2.88;;;2.03;;
26536;SDS011;14204;51.262;5.488;2022-07-29T15:36:03;4.63;;;2.15;;
26536;SDS011;14204;51.262;5.488;2022-07-29T15:38:29;5.30;;;1.65;;
26536;SDS011;14204;51.262;5.488;2022-07-29T15:40:55;5.03;;;2.30;;
26536;SDS011;14204;51.262;5.488;2022-07-29T15:43:21;5.00;;;1.98;;
26536;SDS011;14204;51.262;5.488;2022-07-29T15:45:47;7.47;;;2.00;;
26536;SDS011;14204;51.262;5.488;2022-07-29T15:48:32;2.60;;;2.20;;